Time;durP1;ratioP1;P1;durP2;ratioP2;P2;SDS_P1;SDS_P2;PMS_P1;PMS_P2;Temp;Humidity;BMP_temperature;BMP_pressure;BME280_temperature;BME280_humidity;BME280_pressure;Samples;Min_cycle;Max_cycle;Signal;HPM_P1;HPM_P2
2022/03/06 00:01:01;;;;;;;19.30;13.97;;;;;;;-0.85;77.11;99856.06;5085821;28;20520;-74
2022/03/06 00:03:29;;;;;;;18.33;13.13;;;;;;;-0.93;78.50;99852.31;5076108;28;20311;-73
2022/03/06 00:05:56;;;;;;;19.50;14.13;;;;;;;-0.98;78.55;99851.91;5088315;28;20247;-74
2022/03/06 00:08:23;;;;;;;20.40;13.63;;;;;;;-1.02;78.85;99850.53;5101453;28;20252;-73
2022/03/06 00:10:50;;;;;;;19.80;14.60;;;;;;;-1.13;80.29;99849.88;5087649;28;20228;-73
2022/03/06 00:13:19;;;;;;;18.33;13.83;;;;;;;-1.07;80.20;99849.28;5088314;28;20254;-73
2022/03/06 00:15:46;;;;;;;21.03;14.70;;;;;;;-1.05;79.39;99853.47;5104035;22;20224;-74
2022/03/06 00:18:13;;;;;;;20.37;14.30;;;;;;;-1.20;81.83;99846.97;5095027;28;20295;-74
2022/03/06 00:20:47;;;;;;;21.63;14.70;;;;;;;-1.19;81.45;99843.38;5103913;28;20254;-73
2022/03/06 00:23:14;;;;;;;20.20;14.20;;;;;;;-1.25;82.82;99846.56;5102492;28;20228;-73
2022/03/06 00:25:41;;;;;;;20.07;14.43;;;;;;;-1.22;82.77;99850.72;5099849;28;20232;-73
2022/03/06 00:28:09;;;;;;;18.23;13.90;;;;;;;-1.33;83.72;99847.25;5094801;28;20313;-73
2022/03/06 00:30:41;;;;;;;20.30;14.07;;;;;;;-1.24;82.82;99850.84;5104378;28;20199;-74
2022/03/06 00:33:11;;;;;;;20.47;14.07;;;;;;;-1.33;83.86;99847.25;5099402;28;20225;-74
2022/03/06 00:35:41;;;;;;;22.33;14.50;;;;;;;-1.41;84.44;99847.13;5111450;28;20197;-75
2022/03/06 00:38:10;;;;;;;21.27;14.90;;;;;;;-1.37;84.50;99848.50;5125711;22;20230;-73
2022/03/06 00:40:45;;;;;;;20.57;14.57;;;;;;;-1.48;85.71;99846.00;5108202;28;20227;-73
2022/03/06 00:43:15;;;;;;;20.03;14.37;;;;;;;-1.47;86.95;99847.66;5107195;28;20219;-74
2022/03/06 00:45:44;;;;;;;17.87;13.90;;;;;;;-1.46;87.81;99835.34;5107862;28;20335;-73
2022/03/06 00:48:13;;;;;;;19.30;14.53;;;;;;;-1.50;87.61;99836.59;5114681;28;20236;-74
2022/03/06 00:50:42;;;;;;;22.30;14.53;;;;;;;-1.54;88.27;99838.66;5116495;28;20262;-73
2022/03/06 00:53:12;;;;;;;21.43;14.50;;;;;;;-1.55;88.91;99838.81;5105193;28;20252;-75
2022/03/06 00:55:43;;;;;;;21.70;14.33;;;;;;;-1.51;88.87;99832.31;5117362;28;20275;-74
2022/03/06 00:58:18;;;;;;;18.30;13.37;;;;;;;-1.55;89.24;99825.69;5127510;28;20218;-73
2022/03/06 01:00:48;;;;;;;19.33;14.13;;;;;;;-1.54;88.58;99832.59;5105771;22;20289;-74
2022/03/06 01:03:19;;;;;;;18.70;13.93;;;;;;;-1.59;88.69;99822.50;5030921;28;20229;-74
2022/03/06 01:05:52;;;;;;;21.07;14.57;;;;;;;-1.57;89.11;99835.47;5069629;28;20302;-74
2022/03/06 01:08:26;;;;;;;20.17;13.97;;;;;;;-1.64;89.51;99835.22;5068112;28;20221;-74
2022/03/06 01:10:54;;;;;;;21.57;14.53;;;;;;;-1.66;90.13;99839.75;5078663;23;20236;-74
2022/03/06 01:13:26;;;;;;;20.70;14.43;;;;;;;-1.67;90.18;99835.47;5046837;28;20241;-74
2022/03/06 01:16:08;;;;;;;20.93;14.23;;;;;;;-1.67;89.99;99835.47;5074693;28;20263;-74
2022/03/06 01:18:35;;;;;;;22.87;14.17;;;;;;;-1.49;90.19;99839.06;5086360;28;20216;-73
2022/03/06 01:21:05;;;;;;;21.13;14.43;;;;;;;-1.57;88.90;99833.69;5076728;28;20227;-73
2022/03/06 01:23:35;;;;;;;19.83;14.73;;;;;;;-1.62;89.63;99833.25;5075405;28;20240;-73
2022/03/06 01:26:03;;;;;;;22.43;15.37;;;;;;;-1.75;91.21;99837.13;5089773;28;20224;-73
2022/03/06 01:28:31;;;;;;;21.73;15.60;;;;;;;-1.69;91.78;99828.72;5083188;28;20274;-74
2022/03/06 01:31:01;;;;;;;20.83;14.80;;;;;;;-1.71;90.23;99830.63;5093336;23;20607;-73
2022/03/06 01:33:34;;;;;;;20.03;15.30;;;;;;;-1.81;92.08;99831.44;5104216;28;20314;-75
2022/03/06 01:36:08;;;;;;;21.20;15.47;;;;;;;-1.80;92.37;99832.28;5114873;28;20206;-74
2022/03/06 01:38:41;;;;;;;21.27;15.67;;;;;;;-1.70;93.15;99833.13;5121377;28;20264;-73
2022/03/06 01:41:08;;;;;;;22.10;16.13;;;;;;;-1.61;91.35;99831.47;5108871;28;20247;-74
2022/03/06 01:43:39;;;;;;;20.27;14.17;;;;;;;-1.77;92.15;99820.69;5107832;28;20239;-73
2022/03/06 01:46:11;;;;;;;20.83;15.10;;;;;;;-1.63;90.57;99826.34;5113103;28;20247;-73
2022/03/06 01:48:39;;;;;;;23.63;15.03;;;;;;;-1.70;92.48;99824.41;5112471;28;20228;-74
2022/03/06 01:51:15;;;;;;;19.27;14.73;;;;;;;-1.66;93.61;99821.38;5109089;22;20227;-73
2022/03/06 01:53:50;;;;;;;19.70;14.73;;;;;;;-1.79;94.19;99820.81;5105833;28;20231;-73
2022/03/06 01:56:18;;;;;;;20.80;15.07;;;;;;;-1.85;96.40;99822.19;5102388;28;20233;-73
2022/03/06 01:58:46;;;;;;;20.83;15.13;;;;;;;-1.88;97.46;99817.22;5084928;28;20279;-73
2022/03/06 02:01:13;;;;;;;20.93;15.53;;;;;;;-1.64;96.27;99818.63;5105286;28;20250;-73
2022/03/06 02:03:43;;;;;;;21.80;14.60;;;;;;;-1.86;96.88;99815.25;5085479;28;20258;-74
2022/03/06 02:06:13;;;;;;;22.40;16.07;;;;;;;-1.92;97.99;99807.94;5105555;28;20207;-73
2022/03/06 02:08:42;;;;;;;22.03;15.67;;;;;;;-1.97;100.00;99812.78;5105904;28;20246;-76
2022/03/06 02:11:09;;;;;;;23.97;16.13;;;;;;;-2.00;100.00;99809.56;5110232;22;20578;-73
2022/03/06 02:13:41;;;;;;;22.03;16.43;;;;;;;-2.06;100.00;99815.38;5088234;28;20228;-73
2022/03/06 02:16:13;;;;;;;22.03;15.90;;;;;;;-2.14;100.00;99810.78;5084938;28;20243;-73
2022/03/06 02:18:44;;;;;;;22.27;15.40;;;;;;;-2.12;100.00;99815.91;5113437;22;20224;-73
2022/03/06 02:21:15;;;;;;;21.80;15.67;;;;;;;-2.07;100.00;99814.53;5107784;28;20266;-74
2022/03/06 02:23:45;;;;;;;22.40;15.93;;;;;;;-1.87;100.00;99810.97;5088999;28;20231;-73
2022/03/06 02:26:16;;;;;;;21.60;15.77;;;;;;;-1.96;100.00;99817.03;5084611;28;20247;-73
2022/03/06 02:28:45;;;;;;;21.47;16.10;;;;;;;-2.05;100.00;99822.31;5097652;28;20228;-73
2022/03/06 02:31:16;;;;;;;22.70;16.37;;;;;;;-2.00;100.00;99815.66;5101265;28;20306;-73
2022/03/06 02:33:44;;;;;;;24.10;17.03;;;;;;;-2.07;100.00;99814.53;5101373;28;20237;-73
2022/03/06 02:36:12;;;;;;;23.63;16.60;;;;;;;-2.17;100.00;99813.69;5099469;28;20234;-73
2022/03/06 02:38:48;;;;;;;20.70;15.27;;;;;;;-2.15;100.00;99811.78;5101183;28;20220;-73
2022/03/06 02:41:17;;;;;;;22.40;16.40;;;;;;;-2.15;100.00;99803.91;5101036;28;20243;-74
2022/03/06 02:43:44;;;;;;;22.83;16.20;;;;;;;-2.22;100.00;99808.00;5100373;28;20238;-73
2022/03/06 02:46:14;;;;;;;25.27;17.37;;;;;;;-2.20;100.00;99805.25;5099863;28;20228;-74
2022/03/06 02:48:42;;;;;;;23.83;16.10;;;;;;;-2.31;100.00;99806.19;5101661;28;20216;-73
2022/03/06 02:51:11;;;;;;;23.63;16.43;;;;;;;-2.38;100.00;99812.94;5103621;28;20232;-74
2022/03/06 02:53:42;;;;;;;22.60;16.53;;;;;;;-2.40;100.00;99812.22;5087926;28;20228;-73
2022/03/06 02:56:12;;;;;;;24.67;17.77;;;;;;;-2.43;100.00;99809.88;5105157;28;20231;-73
2022/03/06 02:58:44;;;;;;;24.47;16.57;;;;;;;-2.43;100.00;99807.25;5105880;28;20219;-73
2022/03/06 03:01:17;;;;;;;25.07;16.80;;;;;;;-2.45;100.00;99812.63;5104909;28;20288;-73
2022/03/06 03:03:48;;;;;;;26.77;16.83;;;;;;;-2.34;100.00;99806.47;5111436;22;20229;-73
2022/03/06 03:06:18;;;;;;;26.00;17.13;;;;;;;-2.37;100.00;99811.97;5104941;22;20280;-73
2022/03/06 03:09:06;;;;;;;25.53;17.23;;;;;;;-2.37;100.00;99804.91;5058207;28;20243;-73
2022/03/06 03:11:35;;;;;;;24.53;16.63;;;;;;;-2.38;100.00;99805.06;5079450;28;20286;-74
2022/03/06 03:14:03;;;;;;;25.67;16.50;;;;;;;-2.30;100.00;99808.69;5076888;28;20228;-73
2022/03/06 03:16:30;;;;;;;26.13;16.63;;;;;;;-2.34;100.00;99811.72;5070998;28;20209;-74
2022/03/06 03:18:59;;;;;;;23.50;16.60;;;;;;;-2.37;100.00;99811.97;5079464;28;20267;-74
2022/03/06 03:21:27;;;;;;;23.80;16.83;;;;;;;-2.37;100.00;99814.59;5083754;28;20236;-74
2022/03/06 03:23:56;;;;;;;25.27;16.53;;;;;;;-2.41;100.00;99821.06;5077346;28;20651;-73
2022/03/06 03:26:34;;;;;;;22.67;16.73;;;;;;;-2.40;100.00;99814.84;5071672;28;20228;-73
2022/03/06 03:29:06;;;;;;;23.33;16.17;;;;;;;-2.45;100.00;99815.25;5084788;28;20632;-73
2022/03/06 03:31:35;;;;;;;23.47;16.33;;;;;;;-2.50;100.00;99820.06;5087465;28;20258;-73
2022/03/06 03:34:06;;;;;;;25.40;16.80;;;;;;;-2.52;100.00;99818.56;5092471;28;20197;-74
2022/03/06 03:36:36;;;;;;;23.97;16.07;;;;;;;-2.54;100.00;99812.59;5091718;28;20205;-73
2022/03/06 03:39:04;;;;;;;23.13;16.53;;;;;;;-2.51;100.00;99820.19;5104478;22;20347;-73
2022/03/06 03:41:31;;;;;;;22.13;16.13;;;;;;;-2.47;100.00;99822.41;5119091;22;20232;-74
2022/03/06 03:44:02;;;;;;;21.33;15.87;;;;;;;-2.49;100.00;99821.72;5105461;22;20251;-73
2022/03/06 03:46:37;;;;;;;23.03;16.07;;;;;;;-2.53;100.00;99824.75;5100872;28;20227;-73
2022/03/06 03:49:08;;;;;;;22.07;15.97;;;;;;;-2.50;100.00;99824.47;5121237;28;20649;-73
2022/03/06 03:51:40;;;;;;;22.83;16.30;;;;;;;-2.48;100.00;99822.56;5121664;22;20249;-73
2022/03/06 03:54:08;;;;;;;23.90;15.33;;;;;;;-2.48;100.00;99819.94;5093678;28;20267;-73
2022/03/06 03:56:38;;;;;;;21.63;15.63;;;;;;;-2.50;100.00;99816.63;5116743;28;20626;-74
2022/03/06 03:59:08;;;;;;;22.80;15.63;;;;;;;-2.45;100.00;99830.16;5106219;28;20229;-73
2022/03/06 04:01:35;;;;;;;20.60;15.27;;;;;;;-2.55;100.00;99824.03;5118471;28;20316;-74
2022/03/06 04:04:16;;;;;;;20.70;15.13;;;;;;;-2.56;100.00;99825.00;5119090;28;20218;-73
2022/03/06 04:06:43;;;;;;;22.57;15.17;;;;;;;-2.59;100.00;99823.47;5111058;28;20223;-74
2022/03/06 04:09:12;;;;;;;21.80;14.90;;;;;;;-2.63;100.00;99829.13;5081202;28;20228;-75
2022/03/06 04:11:41;;;;;;;20.97;15.10;;;;;;;-2.66;100.00;99831.03;5084690;28;20232;-73
2022/03/06 04:14:10;;;;;;;21.97;15.43;;;;;;;-2.62;100.00;99834.25;5106060;28;20319;-74
2022/03/06 04:16:40;;;;;;;22.17;15.27;;;;;;;-2.64;100.00;99830.91;5104713;28;20283;-73
2022/03/06 04:19:10;;;;;;;22.13;15.50;;;;;;;-2.67;100.00;99832.00;5086856;28;20253;-73
2022/03/06 04:21:40;;;;;;;21.13;14.97;;;;;;;-2.69;100.00;99833.94;5097436;28;20299;-73
2022/03/06 04:24:28;;;;;;;22.37;14.97;;;;;;;-2.73;100.00;99837.78;5105866;28;20224;-73
2022/03/06 04:26:55;;;;;;;20.73;15.50;;;;;;;-2.75;100.00;99837.06;5088260;28;20259;-74
2022/03/06 04:29:24;;;;;;;23.60;15.73;;;;;;;-2.80;100.00;99839.25;5101737;28;20239;-74
2022/03/06 04:31:53;;;;;;;20.93;15.63;;;;;;;-2.81;100.00;99839.38;5102686;28;20232;-75
2022/03/06 04:34:21;;;;;;;22.37;15.90;;;;;;;-2.85;100.00;99838.00;5099168;28;20253;-74
2022/03/06 04:36:49;;;;;;;20.00;15.27;;;;;;;-2.86;100.00;99845.03;5104815;28;20202;-74
2022/03/06 04:39:17;;;;;;;21.20;15.47;;;;;;;-2.91;100.00;99844.56;5108849;28;20196;-74
2022/03/06 04:42:07;;;;;;;21.77;15.43;;;;;;;-2.94;100.00;99842.19;5108705;28;20291;-73
2022/03/06 04:44:35;;;;;;;24.00;16.13;;;;;;;-3.01;100.00;99851.53;5106723;28;20219;-74
2022/03/06 04:47:03;;;;;;;21.27;15.37;;;;;;;-3.03;100.00;99852.66;5112345;28;20227;-73
2022/03/06 04:49:33;;;;;;;23.60;15.73;;;;;;;-3.04;100.00;99850.97;5107006;28;20255;-73
2022/03/06 04:52:05;;;;;;;21.13;16.10;;;;;;;-3.04;100.00;99845.72;5100585;28;20236;-74
2022/03/06 04:54:33;;;;;;;20.87;15.50;;;;;;;-3.08;100.00;99847.78;5101129;28;20219;-73
2022/03/06 04:57:05;;;;;;;22.20;14.83;;;;;;;-3.12;100.00;99849.81;5106034;28;20310;-75
2022/03/06 05:00:01;;;;;;;21.60;15.03;;;;;;;-3.17;100.00;99856.38;5102130;28;20276;-74
2022/03/06 05:02:32;;;;;;;21.93;15.67;;;;;;;-3.21;100.00;99852.34;5108463;28;20200;-74
2022/03/06 05:05:03;;;;;;;23.13;15.73;;;;;;;-3.26;100.00;99841.41;5091152;28;20234;-74
2022/03/06 05:07:38;;;;;;;22.20;15.57;;;;;;;-3.33;100.00;99854.22;5102283;28;20212;-74
2022/03/06 05:10:10;;;;;;;20.97;15.47;;;;;;;-3.33;100.00;99856.84;5106620;28;20224;-73
2022/03/06 05:12:40;;;;;;;21.83;15.27;;;;;;;-3.30;100.00;99850.50;5109614;28;20215;-75
2022/03/06 05:15:27;;;;;;;20.77;15.23;;;;;;;-3.38;100.00;99856.38;5092019;28;20216;-73
2022/03/06 05:18:03;;;;;;;24.10;15.97;;;;;;;-3.38;100.00;99852.94;5106349;28;20224;-73
2022/03/06 05:20:31;;;;;;;22.53;15.13;;;;;;;-3.38;100.00;99852.94;5106323;28;20228;-74
2022/03/06 05:23:05;;;;;;;22.43;14.93;;;;;;;-3.36;100.00;99857.06;5107137;28;20214;-76
2022/03/06 05:25:37;;;;;;;22.60;16.37;;;;;;;-3.31;100.00;99859.34;5089302;28;20238;-73
2022/03/06 05:28:05;;;;;;;20.90;15.87;;;;;;;-3.30;100.00;99863.59;5105842;28;20247;-73
2022/03/06 05:30:33;;;;;;;23.97;15.80;;;;;;;-3.28;100.00;99861.69;5097168;28;20199;-74
2022/03/06 05:33:05;;;;;;;20.93;15.03;;;;;;;-3.24;100.00;99865.72;5115729;28;20331;-74
2022/03/06 05:35:34;;;;;;;22.30;15.23;;;;;;;-3.20;100.00;99865.34;5089376;28;20242;-76
2022/03/06 05:38:02;;;;;;;20.77;14.93;;;;;;;-3.16;100.00;99861.50;5108208;28;20216;-74
2022/03/06 05:40:44;;;;;;;21.77;15.73;;;;;;;-3.09;100.00;99864.47;5100611;28;20291;-73
2022/03/06 05:43:49;;;;;;;23.17;15.63;;;;;;;-3.03;100.00;99863.13;5109001;28;20215;-74
2022/03/06 05:46:20;;;;;;;24.50;16.77;;;;;;;-3.02;100.00;99862.97;5105233;28;20200;-73
2022/03/06 05:48:50;;;;;;;22.20;15.97;;;;;;;-2.94;100.00;99864.97;5100135;28;20220;-73
2022/03/06 05:51:19;;;;;;;24.03;16.17;;;;;;;-2.97;100.00;99859.97;5083060;28;20233;-74
2022/03/06 05:53:47;;;;;;;19.90;15.57;;;;;;;-2.96;100.00;99869.50;5071093;28;20288;-73
2022/03/06 05:56:16;;;;;;;23.23;16.20;;;;;;;-2.94;100.00;99857.13;5066567;28;20258;-73
2022/03/06 05:58:45;;;;;;;22.27;16.43;;;;;;;-2.91;100.00;99868.16;5074305;28;20220;-73
2022/03/06 06:01:13;;;;;;;21.20;16.40;;;;;;;-2.91;100.00;99862.94;5059818;28;20237;-74
2022/03/06 06:03:40;;;;;;;20.97;15.10;;;;;;;-2.86;100.00;99854.69;5079555;28;20237;-73
2022/03/06 06:06:13;;;;;;;21.43;15.17;;;;;;;-2.82;100.00;99864.78;5073375;28;20296;-73
2022/03/06 06:08:44;;;;;;;21.37;15.30;;;;;;;-2.79;100.00;99866.28;5058242;28;20235;-74
2022/03/06 06:11:12;;;;;;;20.33;14.83;;;;;;;-2.74;100.00;99864.94;5058268;28;20578;-74
2022/03/06 06:13:39;;;;;;;25.20;16.60;;;;;;;-2.71;100.00;99862.06;5060336;28;20358;-73
2022/03/06 06:16:06;;;;;;;22.90;16.90;;;;;;;-2.60;100.00;99862.94;5079384;28;20215;-73
2022/03/06 06:18:33;;;;;;;22.13;15.73;;;;;;;-2.50;100.00;99864.66;5079045;28;20231;-74
2022/03/06 06:21:52;;;;;;;23.07;16.80;;;;;;;-2.38;100.00;99875.94;5083995;22;20237;-76
2022/03/06 06:24:19;;;;;;;20.97;15.10;;;;;;;-2.30;100.00;99865.59;5082777;28;20232;-75
2022/03/06 06:26:47;;;;;;;22.33;15.67;;;;;;;-2.19;100.00;99862.84;5086691;23;20263;-80
2022/03/06 06:29:36;;;;;;;21.23;14.70;;;;;;;-2.10;100.00;99867.31;5122902;22;20230;-77
2022/03/06 06:32:07;;;;;;;19.83;14.70;;;;;;;-2.03;100.00;99868.44;5130835;28;20223;-75
2022/03/06 06:34:38;;;;;;;21.33;14.67;;;;;;;-1.95;100.00;99870.38;5130810;22;20232;-82
2022/03/06 06:37:08;;;;;;;19.70;14.70;;;;;;;-1.83;100.00;99878.03;5145155;22;20234;-77
2022/03/06 06:39:42;;;;;;;20.83;14.27;;;;;;;-1.75;100.00;99879.16;5115165;22;20212;-85
2022/03/06 06:42:12;;;;;;;18.77;15.07;;;;;;;-1.68;100.00;99875.84;5112665;28;20211;-76
2022/03/06 06:44:47;;;;;;;19.20;14.30;;;;;;;-1.57;100.00;99882.78;5096402;28;20207;-80
2022/03/06 06:47:23;;;;;;;19.43;14.17;;;;;;;-1.48;100.00;99881.97;5096588;28;20222;-78
2022/03/06 06:49:55;;;;;;;20.70;14.27;;;;;;;-1.33;100.00;99888.47;5111363;28;20236;-79
2022/03/06 06:52:25;;;;;;;21.13;14.63;;;;;;;-1.17;100.00;99885.31;5113330;28;20215;-79
2022/03/06 06:55:03;;;;;;;18.43;13.93;;;;;;;-1.09;100.00;99893.31;5087589;28;20227;-74
2022/03/06 06:57:39;;;;;;;20.63;14.10;;;;;;;-0.91;100.00;99891.66;5083932;28;20244;-73
2022/03/06 07:00:08;;;;;;;20.53;14.00;;;;;;;-0.79;100.00;99892.34;5086063;28;20229;-74
2022/03/06 07:02:38;;;;;;;18.23;13.97;;;;;;;-0.68;100.00;99893.00;5140686;22;20243;-73
2022/03/06 07:05:11;;;;;;;19.27;14.10;;;;;;;-0.65;99.14;99894.50;5128395;28;20665;-76
2022/03/06 07:07:39;;;;;;;19.70;13.97;;;;;;;-0.49;97.17;99895.59;5123860;28;20227;-74
2022/03/06 07:10:11;;;;;;;18.47;13.97;;;;;;;-0.37;95.60;99896.22;5120770;28;20246;-74
2022/03/06 07:12:46;;;;;;;19.30;14.20;;;;;;;-0.24;92.05;99891.50;5124008;28;20219;-74
2022/03/06 07:15:14;;;;;;;20.97;14.87;;;;;;;-0.06;86.65;99884.50;5125347;28;20220;-74
2022/03/06 07:17:42;;;;;;;20.10;14.77;;;;;;;0.03;85.07;99882.78;5110505;28;20220;-75
2022/03/06 07:20:19;;;;;;;19.80;14.60;;;;;;;0.05;85.26;99886.09;5123683;28;20314;-78
2022/03/06 07:23:03;;;;;;;18.37;14.33;;;;;;;0.19;82.41;99893.50;5137277;22;20227;-78
2022/03/06 07:25:36;;;;;;;19.23;14.30;;;;;;;0.16;82.49;99893.81;5120189;22;20232;-75
2022/03/06 07:28:25;;;;;;;18.30;14.03;;;;;;;0.43;78.80;99900.84;5100554;28;20260;-77
2022/03/06 07:30:53;;;;;;;17.93;13.50;;;;;;;0.62;77.59;99892.81;5101588;28;20247;-76
2022/03/06 07:33:34;;;;;;;18.80;14.37;;;;;;;0.66;74.76;99894.19;5108259;22;20239;-74
2022/03/06 07:36:05;;;;;;;20.10;14.20;;;;;;;0.68;72.91;99892.22;5117678;22;20248;-73
2022/03/06 07:38:49;;;;;;;19.80;14.70;;;;;;;0.80;70.40;99898.09;5077747;28;20200;-73
2022/03/06 07:41:21;;;;;;;20.60;15.70;;;;;;;0.93;71.63;99895.09;5095027;22;20305;-74
2022/03/06 07:43:51;;;;;;;20.67;14.90;;;;;;;1.00;69.14;99890.84;5080203;23;20243;-76
2022/03/06 07:46:32;;;;;;;19.83;15.23;;;;;;;1.07;68.61;99891.94;5100020;22;20224;-75
2022/03/06 07:49:14;;;;;;;20.70;14.83;;;;;;;1.20;67.65;99893.19;5190035;22;20251;-73
2022/03/06 07:51:42;;;;;;;18.80;14.17;;;;;;;1.31;66.92;99892.91;5101290;28;20224;-73
2022/03/06 07:54:18;;;;;;;20.93;14.70;;;;;;;1.39;66.47;99889.53;5092061;28;20229;-73
2022/03/06 07:56:50;;;;;;;19.60;14.93;;;;;;;1.44;67.22;99881.97;5092351;28;20212;-74
2022/03/06 07:59:24;;;;;;;20.70;14.10;;;;;;;1.59;64.40;99890.13;5112387;28;20242;-73
2022/03/06 08:02:14;;;;;;;18.57;14.47;;;;;;;1.53;63.49;99885.50;5113244;23;20292;-73
2022/03/06 08:04:46;;;;;;;19.63;13.57;;;;;;;1.55;62.38;99889.63;5093195;28;20243;-75
2022/03/06 08:07:22;;;;;;;18.30;13.60;;;;;;;1.45;62.61;99880.97;5103966;28;20215;-73
2022/03/06 08:09:55;;;;;;;19.07;14.20;;;;;;;1.60;63.30;99887.34;5102744;28;20244;-75
2022/03/06 08:13:02;;;;;;;19.90;12.07;;;;;;;1.53;61.55;99886.31;5111359;22;20231;-74
2022/03/06 08:15:42;;;;;;;19.87;14.33;;;;;;;1.48;62.35;99888.59;5113316;28;20296;-73
2022/03/06 08:18:20;;;;;;;20.40;14.07;;;;;;;1.73;61.69;99878.97;5126407;28;20199;-73
2022/03/06 08:20:47;;;;;;;19.60;14.83;;;;;;;1.88;60.83;99885.34;5104461;28;20227;-73
2022/03/06 08:23:15;;;;;;;19.83;14.90;;;;;;;1.93;60.62;99882.22;5081565;28;20646;-73
2022/03/06 08:25:46;;;;;;;22.43;15.83;;;;;;;2.01;60.25;99882.25;5103283;28;20230;-74
2022/03/06 08:28:14;;;;;;;21.73;15.30;;;;;;;2.02;59.63;99876.81;5111563;28;20269;-73
2022/03/06 08:30:45;;;;;;;23.17;15.50;;;;;;;1.81;61.07;99873.75;5114515;28;20303;-74
2022/03/06 08:33:18;;;;;;;18.37;14.97;;;;;;;2.02;59.81;99874.19;5100016;22;20669;-73
2022/03/06 08:35:49;;;;;;;19.90;14.63;;;;;;;2.04;60.41;99869.56;5083278;28;20248;-74
2022/03/06 08:38:16;;;;;;;17.67;14.37;;;;;;;2.09;57.73;99872.56;5080976;28;20239;-73
2022/03/06 08:40:48;;;;;;;17.80;13.47;;;;;;;1.93;57.53;99869.84;5087908;28;20231;-73
2022/03/06 08:43:27;;;;;;;19.03;13.87;;;;;;;2.02;58.07;99866.25;5090876;28;20622;-75
2022/03/06 08:46:03;;;;;;;16.43;12.70;;;;;;;1.92;57.83;99867.34;5099957;22;20235;-73
2022/03/06 08:48:45;;;;;;;18.20;13.73;;;;;;;2.16;58.86;99867.47;5065080;28;20277;-73
2022/03/06 08:51:17;;;;;;;17.37;13.53;;;;;;;2.10;56.67;99861.00;5089822;28;20224;-73
2022/03/06 08:53:46;;;;;;;16.77;12.73;;;;;;;2.22;56.05;99861.53;5089658;28;20256;-73
2022/03/06 08:56:13;;;;;;;19.20;13.30;;;;;;;1.96;55.99;99863.44;5087290;28;20228;-73
2022/03/06 08:58:47;;;;;;;17.77;12.17;;;;;;;2.15;54.46;99863.16;5091275;28;20193;-73
2022/03/06 09:01:17;;;;;;;16.60;13.10;;;;;;;2.09;55.66;99854.06;5089304;28;20244;-74
2022/03/06 09:03:57;;;;;;;16.43;12.63;;;;;;;2.10;54.71;99853.06;5092399;28;20220;-74
2022/03/06 09:06:34;;;;;;;19.30;13.37;;;;;;;2.46;55.30;99856.31;5107253;22;20230;-73
2022/03/06 09:09:07;;;;;;;15.00;11.27;;;;;;;2.63;52.40;99859.81;5090030;28;20224;-73
2022/03/06 09:11:52;;;;;;;14.73;11.30;;;;;;;2.78;51.59;99846.78;5084172;28;20247;-73
2022/03/06 09:14:29;;;;;;;15.60;11.80;;;;;;;2.60;52.37;99853.03;5118804;22;20235;-74
2022/03/06 09:17:17;;;;;;;16.93;12.13;;;;;;;2.62;52.33;99847.56;5111295;28;20235;-74
2022/03/06 09:19:54;;;;;;;18.13;12.20;;;;;;;2.80;51.57;99853.53;5112541;28;20646;-73
2022/03/06 09:22:21;;;;;;;16.37;12.43;;;;;;;2.75;51.67;99847.94;5114476;28;20649;-73
2022/03/06 09:24:51;;;;;;;15.67;12.07;;;;;;;2.99;52.10;99849.75;5114162;28;20208;-73
2022/03/06 09:27:32;;;;;;;17.60;13.17;;;;;;;3.11;51.75;99843.13;5111982;28;20332;-76
2022/03/06 09:30:29;;;;;;;18.33;13.60;;;;;;;3.41;50.82;99836.28;5112063;28;20257;-75
2022/03/06 09:33:06;;;;;;;20.27;14.33;;;;;;;3.69;51.44;99826.94;5113641;22;20255;-74
2022/03/06 09:35:42;;;;;;;20.40;15.10;;;;;;;3.70;52.14;99820.66;5106104;22;20236;-73
2022/03/06 09:38:11;;;;;;;18.97;14.17;;;;;;;4.02;49.85;99824.16;5078727;28;20238;-73
2022/03/06 09:40:45;;;;;;;18.97;14.87;;;;;;;3.58;50.19;99811.44;5075279;28;20236;-73
2022/03/06 09:43:18;;;;;;;18.77;13.57;;;;;;;3.92;50.20;99824.38;5078459;28;20228;-74
2022/03/06 09:45:46;;;;;;;18.43;14.57;;;;;;;3.97;49.67;99820.22;5068048;28;20750;-74
2022/03/06 09:48:17;;;;;;;17.30;14.00;;;;;;;4.44;47.88;99822.78;5087122;28;20232;-73
2022/03/06 09:50:49;;;;;;;17.37;13.33;;;;;;;4.25;47.73;99815.25;5061486;28;20555;-73
2022/03/06 09:53:18;;;;;;;18.40;14.63;;;;;;;3.86;50.36;99820.63;5085496;28;20228;-74
2022/03/06 09:55:54;;;;;;;18.37;14.30;;;;;;;3.97;49.09;99817.56;5077381;28;20251;-73
2022/03/06 09:58:27;;;;;;;20.10;13.43;;;;;;;4.00;48.08;99819.06;5063641;28;20224;-75
2022/03/06 10:00:57;;;;;;;17.23;14.27;;;;;;;3.94;48.06;99815.28;5070665;28;20279;-76
2022/03/06 10:03:24;;;;;;;19.10;14.07;;;;;;;3.88;47.26;99820.41;5059403;28;20663;-76
2022/03/06 10:05:53;;;;;;;15.97;12.87;;;;;;;3.76;47.15;99819.16;5061619;28;20727;-73
2022/03/06 10:08:28;;;;;;;16.83;12.70;;;;;;;3.99;46.43;99817.41;5083749;28;21171;-73
2022/03/06 10:11:12;;;;;;;19.63;13.20;;;;;;;4.03;46.96;99809.91;5071083;28;20239;-73
2022/03/06 10:13:45;;;;;;;17.00;12.90;;;;;;;3.95;46.88;99816.09;5095553;28;20227;-73
2022/03/06 10:16:31;;;;;;;17.30;13.30;;;;;;;4.19;46.73;99820.47;5084848;28;20220;-73
2022/03/06 10:19:01;;;;;;;16.43;13.00;;;;;;;4.40;45.95;99820.66;5055020;28;20232;-73
2022/03/06 10:21:39;;;;;;;16.27;12.70;;;;;;;4.62;45.08;99811.88;5080367;28;20224;-74
2022/03/06 10:24:08;;;;;;;16.67;12.83;;;;;;;4.87;43.94;99812.53;5084840;28;20227;-73
2022/03/06 10:26:36;;;;;;;16.03;12.33;;;;;;;4.78;44.88;99819.72;5079712;28;20223;-76
2022/03/06 10:29:24;;;;;;;15.70;12.70;;;;;;;5.01;43.75;99814.41;5090817;28;20204;-75
2022/03/06 10:31:58;;;;;;;15.40;12.43;;;;;;;5.18;42.50;99807.13;5092827;28;20276;-75
2022/03/06 10:34:56;;;;;;;15.77;12.67;;;;;;;5.26;42.90;99815.00;5071881;22;20236;-75
2022/03/06 10:37:45;;;;;;;15.07;12.60;;;;;;;4.98;42.78;99803.31;5079733;22;20205;-75
2022/03/06 10:40:41;;;;;;;17.67;12.80;;;;;;;5.19;42.80;99806.91;5063189;28;20229;-76
2022/03/06 10:43:30;;;;;;;17.23;12.83;;;;;;;5.20;42.06;99807.75;5063646;28;20534;-75
2022/03/06 10:46:36;;;;;;;14.93;12.43;;;;;;;5.59;41.67;99811.00;5072916;28;20301;-75
2022/03/06 10:49:26;;;;;;;14.90;11.77;;;;;;;5.59;41.39;99805.69;5107160;22;20223;-75
2022/03/06 10:52:16;;;;;;;12.10;10.47;;;;;;;5.59;40.88;99803.03;5109459;28;20228;-75
2022/03/06 10:54:56;;;;;;;14.13;11.33;;;;;;;5.31;41.23;99791.38;5109427;22;20235;-75
2022/03/06 10:57:40;;;;;;;15.93;11.57;;;;;;;5.18;41.12;99799.16;5034672;28;20251;-75
2022/03/06 11:00:33;;;;;;;12.50;10.70;;;;;;;5.52;41.05;99806.59;5074601;28;20196;-76
2022/03/06 11:03:39;;;;;;;15.17;11.23;;;;;;;5.09;40.92;99806.34;5082027;28;20236;-73
2022/03/06 11:06:17;;;;;;;12.30;10.50;;;;;;;5.12;40.83;99794.56;5084114;28;20221;-74
2022/03/06 11:08:58;;;;;;;13.60;11.07;;;;;;;5.62;39.10;99792.03;5071561;28;20228;-75
2022/03/06 11:11:32;;;;;;;15.03;11.77;;;;;;;5.84;39.57;99784.13;5057217;28;20236;-75
2022/03/06 11:14:12;;;;;;;14.80;11.83;;;;;;;5.81;39.13;99779.19;5078615;28;20227;-75
2022/03/06 11:16:51;;;;;;;14.23;11.50;;;;;;;5.99;39.17;99780.47;5078236;23;20229;-75
2022/03/06 11:19:19;;;;;;;12.40;10.53;;;;;;;5.76;38.26;99777.91;5075938;28;20235;-75
2022/03/06 11:22:14;;;;;;;13.40;10.83;;;;;;;5.94;38.42;99774.88;5118595;22;20211;-75
2022/03/06 11:24:50;;;;;;;11.93;10.37;;;;;;;6.18;37.12;99773.72;5115152;28;20219;-75
2022/03/06 11:27:48;;;;;;;12.33;10.10;;;;;;;5.61;38.18;99768.28;5117224;22;20225;-75
2022/03/06 11:30:22;;;;;;;12.03;10.00;;;;;;;5.89;37.55;99758.66;5085494;22;20247;-75
2022/03/06 11:33:30;;;;;;;12.53;10.20;;;;;;;5.47;38.15;99761.97;5094683;22;20178;-75
2022/03/06 11:36:37;;;;;;;12.93;10.53;;;;;;;5.25;38.60;99762.88;5221868;22;20234;-75
2022/03/06 11:39:40;;;;;;;13.57;10.80;;;;;;;5.71;38.12;99760.84;5101030;22;20220;-75
2022/03/06 11:42:48;;;;;;;13.80;10.77;;;;;;;6.03;37.75;99762.28;5131076;28;20215;-75
2022/03/06 11:45:51;;;;;;;13.17;10.97;;;;;;;6.38;36.32;99761.47;5119163;28;20230;-75
2022/03/06 11:48:33;;;;;;;13.17;11.20;;;;;;;6.27;37.38;99746.00;5123252;27;20238;-77